Time;durP1;ratioP1;P1;durP2;ratioP2;P2;SDS_P1;SDS_P2;PMS_P1;PMS_P2;Temp;Humidity;BMP_temperature;BMP_pressure;BME280_temperature;BME280_humidity;BME280_pressure;Samples;Min_cycle;Max_cycle;Signal;HPM_P1;HPM_P2
2023/10/15 00:02:03;;;;;;;;;;;;;;;7.09;90.34;101745.88;5050848;28;1141;-77
2023/10/15 00:04:28;;;;;;;;;;;;;;;7.13;89.95;101729.34;5049984;28;1301;-76
2023/10/15 00:06:54;;;;;;;;;;;;;;;7.20;89.42;101730.69;5040523;28;2008;-76
2023/10/15 00:09:20;;;;;;;;;;;;;;;7.23;89.72;101743.44;5054066;28;1238;-77
2023/10/15 00:11:45;;;;;;;;;;;;;;;7.24;90.85;101754.59;5047279;28;1311;-76
2023/10/15 00:14:11;;;;;;;;;;;;;;;7.19;91.48;101770.28;5039546;28;1094;-77
2023/10/15 00:16:36;;;;;;;;;;;;;;;7.10;93.53;101774.19;5039845;28;1172;-77
2023/10/15 00:19:10;;;;;;;;;;;;;;;7.09;93.08;101776.84;5050820;28;1172;-77
2023/10/15 00:21:36;;;;;;;;;;;;;;;7.12;90.54;101777.53;5049262;28;1305;-77
2023/10/15 00:24:05;;;;;;;;;;;;;;;7.15;92.01;101786.84;5047115;28;1164;-77
2023/10/15 00:26:31;;;;;;;;;;;;;;;7.16;92.24;101793.66;5048943;28;1973;-76
2023/10/15 00:28:57;;;;;;;;;;;;;;;7.18;91.26;101776.38;5049507;28;1443;-77
2023/10/15 00:31:22;;;;;;;;;;;;;;;7.21;92.55;101771.03;5049236;28;1195;-78
2023/10/15 00:33:48;;;;;;;;;;;;;;;7.25;91.98;101757.06;5054869;28;1204;-74
2023/10/15 00:36:13;;;;;;;;;;;;;;;7.31;91.71;101754.16;5051313;28;1139;-74
2023/10/15 00:38:45;;;;;;;;;;;;;;;7.33;92.06;101757.50;5059164;28;1202;-75
2023/10/15 00:41:13;;;;;;;;;;;;;;;7.34;93.33;101760.91;5041161;28;1061;-74
2023/10/15 00:43:50;;;;;;;;;;;;;;;7.24;93.48;101764.91;5055133;28;1236;-74
2023/10/15 00:46:17;;;;;;;;;;;;;;;7.28;93.04;101777.53;5051239;28;1898;-73
2023/10/15 00:48:43;;;;;;;;;;;;;;;7.23;94.37;101779.56;5056966;28;974;-76
2023/10/15 00:51:11;;;;;;;;;;;;;;;7.21;95.80;101778.78;5069131;28;1450;-76
2023/10/15 00:53:42;;;;;;;;;;;;;;;7.18;94.29;101789.28;5049091;28;1666;-77
2023/10/15 00:56:10;;;;;;;;;;;;;;;7.16;94.39;101780.75;5045452;28;1449;-77
2023/10/15 01:03:48;;;;;;;;;;;;;;;7.14;94.39;101785.19;5036679;28;1131;-76
2023/10/15 01:06:14;;;;;;;;;;;;;;;7.17;95.26;101764.41;5052422;28;1961;-76
2023/10/15 01:08:40;;;;;;;;;;;;;;;7.17;95.06;101765.22;5046350;28;1311;-74
2023/10/15 01:11:08;;;;;;;;;;;;;;;7.18;95.99;101776.38;5036908;28;1144;-74
2023/10/15 01:13:34;;;;;;;;;;;;;;;7.13;96.09;101780.94;5061448;28;1331;-74
2023/10/15 01:16:03;;;;;;;;;;;;;;;7.12;95.69;101776.69;5061465;28;1350;-74
2023/10/15 01:18:28;;;;;;;;;;;;;;;7.13;94.75;101778.38;5050617;28;1134;-74
2023/10/15 01:20:54;;;;;;;;;;;;;;;7.17;94.89;101769.56;5051771;28;1204;-74
2023/10/15 01:26:15;;;;;;;;;;;;;;;7.25;95.46;101741.59;5035721;28;1906;-75
2023/10/15 01:28:42;;;;;;;;;;;;;;;7.31;94.96;101732.69;5049139;28;1046;-75
2023/10/15 01:31:08;;;;;;;;;;;;;;;7.35;95.47;101731.63;5047876;28;1584;-74
2023/10/15 01:33:46;;;;;;;;;;;;;;;7.37;95.27;101724.63;5049238;28;1155;-74
2023/10/15 01:36:29;;;;;;;;;;;;;;;7.41;95.02;101726.97;5043822;28;1320;-73
2023/10/15 01:38:57;;;;;;;;;;;;;;;7.43;95.18;101719.97;5043464;28;1160;-76
2023/10/15 01:41:25;;;;;;;;;;;;;;;7.43;95.05;101730.28;5045216;28;1116;-76
2023/10/15 01:43:50;;;;;;;;;;;;;;;7.43;94.51;101730.28;5051234;28;1010;-76
2023/10/15 01:49:06;;;;;;;;;;;;;;;7.37;94.76;101740.94;5056320;28;1259;-74
2023/10/15 01:51:36;;;;;;;;;;;;;;;7.36;94.37;101748.78;5055645;28;1165;-74
2023/10/15 01:54:04;;;;;;;;;;;;;;;7.38;94.97;101758.09;5050336;28;1196;-74
2023/10/15 01:56:30;;;;;;;;;;;;;;;7.37;95.20;101761.59;5056644;28;1188;-73
2023/10/15 01:58:55;;;;;;;;;;;;;;;7.37;95.44;101748.69;5051890;28;1331;-74
2023/10/15 02:01:20;;;;;;;;;;;;;;;7.38;95.33;101747.75;5047800;28;1374;-73
2023/10/15 02:03:46;;;;;;;;;;;;;;;7.37;96.09;101766.75;5051713;28;1131;-74
2023/10/15 02:06:13;;;;;;;;;;;;;;;7.31;94.67;101767.06;5052288;28;1890;-74
2023/10/15 02:08:39;;;;;;;;;;;;;;;7.26;94.76;101758.72;5046564;28;1069;-74
2023/10/15 02:11:15;;;;;;;;;;;;;;;7.23;95.66;101769.22;5042978;28;1077;-73
2023/10/15 02:13:40;;;;;;;;;;;;;;;7.18;96.53;101771.22;5047868;28;1018;-76
2023/10/15 02:16:09;;;;;;;;;;;;;;;7.14;97.56;101774.88;5050654;28;1264;-76
2023/10/15 02:18:35;;;;;;;;;;;;;;;7.13;98.27;101773.19;5045575;28;1159;-78
2023/10/15 02:21:00;;;;;;;;;;;;;;;7.11;97.10;101777.59;5061664;28;1202;-76
2023/10/15 02:23:26;;;;;;;;;;;;;;;7.11;96.94;101773.28;5052611;28;1165;-76
2023/10/15 02:26:00;;;;;;;;;;;;;;;7.13;97.58;101757.72;5052148;28;2024;-76
2023/10/15 02:28:26;;;;;;;;;;;;;;;7.20;98.16;101733.25;5046249;28;1268;-76
2023/10/15 02:33:30;;;;;;;;;;;;;;;7.22;96.95;101777.88;5044506;28;1328;-76
2023/10/15 02:35:58;;;;;;;;;;;;;;;7.30;96.36;101775.72;5047550;28;1043;-76
2023/10/15 02:38:26;;;;;;;;;;;;;;;7.17;96.61;101772.13;5056735;28;1163;-76
2023/10/15 02:41:04;;;;;;;;;;;;;;;7.15;97.30;101766.19;5050991;28;1110;-77
2023/10/15 02:43:29;;;;;;;;;;;;;;;7.15;97.31;101748.16;5053727;28;1322;-76
2023/10/15 02:46:00;;;;;;;;;;;;;;;7.17;97.61;101733.44;5054162;28;1894;-77
2023/10/15 02:48:26;;;;;;;;;;;;;;;7.19;97.64;101736.75;5059703;28;1090;-77
2023/10/15 02:51:01;;;;;;;;;;;;;;;7.19;97.31;101731.59;5050627;28;994;-77
2023/10/15 02:53:26;;;;;;;;;;;;;;;7.22;97.30;101726.25;5050863;28;1345;-77
2023/10/15 02:55:52;;;;;;;;;;;;;;;7.25;97.50;101720.94;5049556;28;1405;-77
2023/10/15 02:58:17;;;;;;;;;;;;;;;7.23;97.16;101712.47;5050106;28;1195;-76
2023/10/15 03:00:42;;;;;;;;;;;;;;;7.25;97.86;101690.00;5052659;28;1075;-77
2023/10/15 03:03:09;;;;;;;;;;;;;;;7.28;97.54;101689.81;5054500;28;1233;-75
2023/10/15 03:05:40;;;;;;;;;;;;;;;7.27;97.08;101688.16;5049355;28;1272;-74
2023/10/15 03:08:06;;;;;;;;;;;;;;;7.23;96.93;101691.81;5049126;28;1926;-74
2023/10/15 03:10:45;;;;;;;;;;;;;;;7.22;97.26;101692.72;5043895;28;1082;-74
2023/10/15 03:13:14;;;;;;;;;;;;;;;7.19;97.17;101691.16;5048201;28;1224;-73
2023/10/15 03:15:46;;;;;;;;;;;;;;;7.17;96.87;101687.84;5049903;28;1170;-74
2023/10/15 03:18:14;;;;;;;;;;;;;;;7.16;97.05;101700.78;5051797;28;1243;-74
2023/10/15 03:20:48;;;;;;;;;;;;;;;7.13;97.62;101693.22;5047965;28;1178;-74
2023/10/15 03:23:16;;;;;;;;;;;;;;;7.14;97.57;101702.63;5045183;28;1158;-74
2023/10/15 03:25:41;;;;;;;;;;;;;;;7.13;97.07;101706.13;5045442;28;1071;-74
2023/10/15 03:28:07;;;;;;;;;;;;;;;7.10;96.98;101707.09;5046367;28;1966;-74
2023/10/15 03:30:33;;;;;;;;;;;;;;;7.06;97.86;101707.38;5051527;28;1041;-74
2023/10/15 03:33:00;;;;;;;;;;;;;;;7.06;97.75;101715.09;5046732;28;1166;-73
2023/10/15 03:35:38;;;;;;;;;;;;;;;7.03;97.79;101730.72;5044154;28;1078;-74
2023/10/15 03:38:14;;;;;;;;;;;;;;;7.03;97.78;101730.72;5044864;28;1319;-74
2023/10/15 03:40:46;;;;;;;;;;;;;;;7.02;97.86;101737.63;5049497;28;1053;-74
2023/10/15 03:43:20;;;;;;;;;;;;;;;7.03;97.52;101741.06;5047469;28;1194;-73
2023/10/15 03:45:52;;;;;;;;;;;;;;;7.03;97.93;101741.88;5050650;28;954;-73
2023/10/15 03:48:28;;;;;;;;;;;;;;;7.04;98.56;101742.72;5046614;28;1343;-74
2023/10/15 03:50:54;;;;;;;;;;;;;;;7.05;98.47;101731.47;5054263;28;1001;-76
2023/10/15 03:53:21;;;;;;;;;;;;;;;7.05;98.18;101734.88;5045045;28;1254;-75
2023/10/15 03:55:49;;;;;;;;;;;;;;;7.06;98.35;101735.75;5057417;28;1158;-73
2023/10/15 03:58:15;;;;;;;;;;;;;;;7.10;98.33;101753.53;5041496;28;1309;-74
2023/10/15 04:00:46;;;;;;;;;;;;;;;7.08;98.22;101749.38;5062561;28;1347;-73
2023/10/15 04:03:28;;;;;;;;;;;;;;;7.14;97.83;101749.06;5054499;28;1212;-75
2023/10/15 04:06:06;;;;;;;;;;;;;;;7.12;98.32;101756.88;5053401;28;1910;-75
2023/10/15 04:08:34;;;;;;;;;;;;;;;7.12;98.71;101761.22;5054993;28;1107;-73
2023/10/15 04:11:00;;;;;;;;;;;;;;;7.12;98.30;101766.38;5049229;28;1032;-74
2023/10/15 04:13:28;;;;;;;;;;;;;;;7.07;98.32;101758.03;5055053;28;1075;-75
2023/10/15 04:15:54;;;;;;;;;;;;;;;7.07;98.43;101758.03;5071158;28;1302;-74
2023/10/15 04:18:22;;;;;;;;;;;;;;;7.02;98.94;101755.69;5058448;28;1076;-74
2023/10/15 04:20:48;;;;;;;;;;;;;;;7.02;98.83;101760.03;5064710;28;1104;-73
2023/10/15 04:23:14;;;;;;;;;;;;;;;6.98;98.54;101773.97;5048849;28;991;-76
2023/10/15 04:25:39;;;;;;;;;;;;;;;6.93;98.87;101762.16;5053254;28;1160;-77
2023/10/15 04:28:15;;;;;;;;;;;;;;;6.93;98.91;101767.31;5049692;28;1969;-77
2023/10/15 04:30:40;;;;;;;;;;;;;;;6.93;98.69;101787.94;5050946;28;1013;-77
2023/10/15 04:33:11;;;;;;;;;;;;;;;6.97;98.11;101792.94;5054798;28;1162;-78
2023/10/15 04:35:37;;;;;;;;;;;;;;;6.91;98.23;101789.78;5073653;28;1319;-77
2023/10/15 04:38:06;;;;;;;;;;;;;;;6.93;98.79;101787.94;5055980;28;1018;-78
2023/10/15 04:40:39;;;;;;;;;;;;;;;6.93;98.79;101792.25;5058282;28;1236;-76
2023/10/15 04:43:04;;;;;;;;;;;;;;;6.89;99.56;101801.91;5056576;28;1082;-76
2023/10/15 04:48:01;;;;;;;;;;;;;;;6.86;98.50;101786.59;5053369;28;1890;-76
2023/10/15 04:50:29;;;;;;;;;;;;;;;6.88;97.97;101774.47;5044947;28;1101;-77
2023/10/15 04:52:54;;;;;;;;;;;;;;;6.94;98.55;101760.44;5040691;28;1259;-77
2023/10/15 04:55:20;;;;;;;;;;;;;;;6.91;98.48;101747.69;5045196;28;1067;-77
2023/10/15 04:57:45;;;;;;;;;;;;;;;6.86;98.25;101740.16;5048588;28;1138;-76
2023/10/15 05:00:11;;;;;;;;;;;;;;;6.85;98.36;101738.50;5045722;28;1142;-76
2023/10/15 05:02:36;;;;;;;;;;;;;;;6.86;98.65;101742.75;5044522;28;1219;-76
2023/10/15 05:05:05;;;;;;;;;;;;;;;6.88;98.78;101730.63;5046282;28;1118;-76
2023/10/15 05:07:31;;;;;;;;;;;;;;;6.87;99.08;101743.59;5044979;28;2319;-76
2023/10/15 05:09:57;;;;;;;;;;;;;;;6.87;98.54;101741.00;5053845;28;1159;-77
2023/10/15 05:12:22;;;;;;;;;;;;;;;6.82;99.21;101746.38;5051365;28;1130;-76
2023/10/15 05:14:51;;;;;;;;;;;;;;;6.76;98.33;101741.53;5052603;28;1107;-77
2023/10/15 05:17:16;;;;;;;;;;;;;;;6.73;99.29;101749.44;5047002;28;1232;-77
2023/10/15 05:19:42;;;;;;;;;;;;;;;6.69;98.38;101753.09;5048553;28;1106;-76
2023/10/15 05:22:08;;;;;;;;;;;;;;;6.66;98.82;101755.84;5047544;28;1084;-73
2023/10/15 05:24:34;;;;;;;;;;;;;;;6.61;98.85;101760.38;5051024;28;1651;-73
2023/10/15 05:26:59;;;;;;;;;;;;;;;6.58;98.60;101753.63;5047245;28;1914;-74
2023/10/15 05:29:24;;;;;;;;;;;;;;;6.56;98.75;101745.13;5051874;28;1078;-73
2023/10/15 05:31:49;;;;;;;;;;;;;;;6.58;98.40;101750.22;5053714;28;1171;-74
2023/10/15 05:34:15;;;;;;;;;;;;;;;6.56;98.55;101750.28;5048991;28;1234;-73
2023/10/15 05:36:40;;;;;;;;;;;;;;;6.51;98.68;101761.75;5050785;28;1483;-73
2023/10/15 05:39:09;;;;;;;;;;;;;;;6.48;98.24;101770.47;5049217;28;1167;-74
2023/10/15 05:41:34;;;;;;;;;;;;;;;6.48;99.02;101754.16;5050438;28;1343;-74
2023/10/15 05:44:00;;;;;;;;;;;;;;;6.47;99.33;101757.66;5045659;28;1526;-74
2023/10/15 05:46:25;;;;;;;;;;;;;;;6.46;99.38;101766.28;5043187;28;1894;-76
2023/10/15 05:48:50;;;;;;;;;;;;;;;6.44;98.56;101774.09;5044852;28;1114;-74
2023/10/15 05:51:16;;;;;;;;;;;;;;;6.42;99.18;101775.06;5052081;28;1163;-74
2023/10/15 05:53:41;;;;;;;;;;;;;;;6.42;99.05;101787.94;5044562;28;1438;-73
2023/10/15 05:56:06;;;;;;;;;;;;;;;6.41;98.90;101815.47;5048434;28;1080;-73
2023/10/15 05:58:31;;;;;;;;;;;;;;;6.38;99.25;101837.06;5049084;28;1367;-73
2023/10/15 06:00:57;;;;;;;;;;;;;;;6.42;99.55;101845.47;5050791;28;1261;-73
2023/10/15 06:03:22;;;;;;;;;;;;;;;6.37;98.78;101850.03;5050430;28;1223;-74
2023/10/15 06:05:47;;;;;;;;;;;;;;;6.36;99.99;101844.03;5051529;28;1101;-73
2023/10/15 06:08:12;;;;;;;;;;;;;;;6.43;99.16;101849.75;5050226;28;1998;-74
2023/10/15 06:10:37;;;;;;;;;;;;;;;6.42;100.00;101847.22;5048579;28;1373;-76
2023/10/15 06:13:03;;;;;;;;;;;;;;;6.41;99.98;101827.53;5057108;28;1246;-73
2023/10/15 06:15:28;;;;;;;;;;;;;;;6.42;99.81;101837.75;5048118;28;1163;-73
2023/10/15 06:17:53;;;;;;;;;;;;;;;6.43;100.00;101848.91;5057047;28;1162;-75
2023/10/15 06:20:19;;;;;;;;;;;;;;;6.41;100.00;101827.53;5049331;28;1154;-74
2023/10/15 06:22:45;;;;;;;;;;;;;;;6.41;100.00;101836.09;5060965;28;1067;-74
2023/10/15 06:25:14;;;;;;;;;;;;;;;6.43;100.00;101823.16;5048780;28;1303;-74
2023/10/15 06:27:40;;;;;;;;;;;;;;;6.46;99.95;101828.13;5052556;28;1967;-74
2023/10/15 06:30:16;;;;;;;;;;;;;;;6.46;100.00;101822.97;5052621;28;1180;-74
2023/10/15 06:32:42;;;;;;;;;;;;;;;6.48;100.00;101826.31;5051903;28;1107;-73
2023/10/15 06:35:07;;;;;;;;;;;;;;;6.49;100.00;101828.84;5041588;28;1173;-74
2023/10/15 06:37:33;;;;;;;;;;;;;;;6.52;100.00;101833.00;5056348;28;1040;-74
2023/10/15 06:39:59;;;;;;;;;;;;;;;6.59;100.00;101837.75;5068560;28;1412;-74
2023/10/15 06:42:25;;;;;;;;;;;;;;;6.55;100.00;101830.28;5045869;28;1215;-75
2023/10/15 06:44:50;;;;;;;;;;;;;;;6.56;100.00;101848.25;5050255;28;1379;-74
2023/10/15 06:47:17;;;;;;;;;;;;;;;6.59;100.00;101839.50;5053084;28;1957;-74
2023/10/15 06:49:43;;;;;;;;;;;;;;;6.56;100.00;101839.69;5073464;28;1282;-74
2023/10/15 06:52:08;;;;;;;;;;;;;;;6.59;100.00;101835.19;5046522;28;1391;-74
2023/10/15 06:54:33;;;;;;;;;;;;;;;6.62;100.00;101847.09;5056604;28;1092;-76
2023/10/15 06:56:58;;;;;;;;;;;;;;;6.70;100.00;101857.03;5066287;28;1378;-74
2023/10/15 06:59:23;;;;;;;;;;;;;;;6.67;100.00;101858.03;5054076;28;1180;-74
2023/10/15 07:01:48;;;;;;;;;;;;;;;6.71;100.00;101871.59;5044145;28;1179;-74
2023/10/15 07:04:14;;;;;;;;;;;;;;;6.70;100.00;101881.06;5041230;28;1443;-74
2023/10/15 07:06:40;;;;;;;;;;;;;;;6.68;100.00;101880.31;5055373;28;1898;-74
2023/10/15 07:09:06;;;;;;;;;;;;;;;6.69;100.00;101879.41;5042268;28;1022;-74
2023/10/15 07:11:31;;;;;;;;;;;;;;;6.68;100.00;101880.31;5045059;28;1129;-76
2023/10/15 07:13:56;;;;;;;;;;;;;;;6.73;100.00;101883.50;5046959;28;1211;-74
2023/10/15 07:16:22;;;;;;;;;;;;;;;6.70;100.00;101870.75;5045142;28;1216;-76
2023/10/15 07:18:47;;;;;;;;;;;;;;;6.75;100.00;101865.38;5042571;28;1199;-74
2023/10/15 07:21:12;;;;;;;;;;;;;;;6.80;100.00;101873.72;5051560;28;1353;-74
2023/10/15 07:23:38;;;;;;;;;;;;;;;6.80;100.00;101884.88;5042738;28;1045;-76
2023/10/15 07:26:03;;;;;;;;;;;;;;;6.82;100.00;101887.38;5068616;28;1898;-74
2023/10/15 07:28:28;;;;;;;;;;;;;;;6.81;100.00;101891.69;5052133;28;1229;-74
2023/10/15 07:30:53;;;;;;;;;;;;;;;6.85;100.00;101888.06;5046214;28;1086;-74
2023/10/15 07:33:19;;;;;;;;;;;;;;;6.85;100.00;101902.72;5053862;28;1192;-75
2023/10/15 07:35:46;;;;;;;;;;;;;;;6.79;100.00;101895.28;5051716;28;1387;-75
2023/10/15 07:38:12;;;;;;;;;;;;;;;6.80;100.00;101899.50;5050862;28;1222;-75
2023/10/15 07:40:37;;;;;;;;;;;;;;;6.79;100.00;101898.69;5052574;28;1290;-75
2023/10/15 07:43:02;;;;;;;;;;;;;;;6.78;100.00;101897.03;5059520;28;1102;-75
2023/10/15 07:45:29;;;;;;;;;;;;;;;6.79;100.00;101898.69;5047931;28;1287;-77
2023/10/15 07:47:55;;;;;;;;;;;;;;;6.81;100.00;101904.59;5051249;28;1898;-74
2023/10/15 07:50:23;;;;;;;;;;;;;;;6.81;100.00;101906.34;5051098;28;1400;-76
2023/10/15 07:52:49;;;;;;;;;;;;;;;6.83;100.00;101915.69;5051893;28;1310;-75
2023/10/15 07:55:14;;;;;;;;;;;;;;;6.82;100.00;101924.31;5053580;28;1179;-75
2023/10/15 07:57:39;;;;;;;;;;;;;;;6.85;100.00;101933.66;5053164;28;1191;-75
2023/10/15 08:00:06;;;;;;;;;;;;;;;6.85;100.00;101937.06;5046056;28;1344;-74
2023/10/15 08:02:32;;;;;;;;;;;;;;;6.87;100.00;101912.03;5050271;28;1161;-75
2023/10/15 08:04:57;;;;;;;;;;;;;;;6.90;100.00;101922.22;5052478;28;1098;-74
2023/10/15 08:07:22;;;;;;;;;;;;;;;6.96;100.00;101938.31;5049745;28;1910;-75
2023/10/15 08:09:48;;;;;;;;;;;;;;;6.99;100.00;101940.72;5050369;28;1125;-74
2023/10/15 08:12:13;;;;;;;;;;;;;;;6.95;100.00;101949.53;5038049;28;1298;-73
2023/10/15 08:14:38;;;;;;;;;;;;;;;6.96;100.00;101953.78;5043404;28;1194;-74
2023/10/15 08:17:03;;;;;;;;;;;;;;;6.98;100.00;101960.50;5050949;28;1225;-74
2023/10/15 08:19:29;;;;;;;;;;;;;;;7.02;100.00;101956.06;5047097;28;1181;-75
2023/10/15 08:21:54;;;;;;;;;;;;;;;7.04;100.00;101970.53;5046276;28;1216;-75
2023/10/15 08:24:19;;;;;;;;;;;;;;;7.12;100.00;101975.34;5039523;28;1271;-74
2023/10/15 08:26:45;;;;;;;;;;;;;;;7.14;100.00;101979.50;5044023;28;1963;-74
2023/10/15 08:29:10;;;;;;;;;;;;;;;7.17;100.00;101991.44;5046606;28;1206;-73
2023/10/15 08:31:36;;;;;;;;;;;;;;;7.21;100.00;102007.59;5048745;28;1016;-74
2023/10/15 08:34:01;;;;;;;;;;;;;;;7.16;100.00;102007.81;5043092;28;1099;-74
2023/10/15 08:36:26;;;;;;;;;;;;;;;7.16;100.00;102020.69;5046717;28;1229;-75
2023/10/15 08:38:52;;;;;;;;;;;;;;;7.17;100.00;102017.25;5043904;28;1112;-73
2023/10/15 08:41:19;;;;;;;;;;;;;;;7.15;100.00;102003.56;5051860;28;1195;-74
2023/10/15 08:43:46;;;;;;;;;;;;;;;7.15;100.00;102008.72;5055274;28;1148;-74
2023/10/15 08:46:11;;;;;;;;;;;;;;;7.16;100.00;102000.06;5046612;28;1894;-73
2023/10/15 08:48:40;;;;;;;;;;;;;;;7.14;100.00;101999.31;5048986;28;1418;-74
2023/10/15 08:51:08;;;;;;;;;;;;;;;7.18;100.00;102004.25;5054019;28;1170;-73
2023/10/15 08:53:34;;;;;;;;;;;;;;;7.18;100.00;102000.84;5042114;28;1156;-77
2023/10/15 08:56:01;;;;;;;;;;;;;;;7.30;100.00;102002.00;5051437;28;1406;-75
2023/10/15 08:58:27;;;;;;;;;;;;;;;7.29;100.00;102003.75;5047037;28;1231;-74
2023/10/15 09:00:56;;;;;;;;;;;;;;;7.37;100.00;102004.19;5046563;28;1102;-75
2023/10/15 09:03:23;;;;;;;;;;;;;;;7.41;100.00;102010.88;5050001;28;1112;-74
2023/10/15 09:05:52;;;;;;;;;;;;;;;7.44;100.00;102000.38;5050044;28;1020;-74
2023/10/15 09:08:17;;;;;;;;;;;;;;;7.50;100.00;101998.41;5050841;28;1955;-74
2023/10/15 09:10:42;;;;;;;;;;;;;;;7.52;100.00;101996.59;5046166;28;1094;-74
2023/10/15 09:13:18;;;;;;;;;;;;;;;7.56;100.00;102005.84;5052663;28;1302;-73
2023/10/15 09:15:45;;;;;;;;;;;;;;;7.58;100.00;102006.63;5047457;28;1265;-74
2023/10/15 09:18:11;;;;;;;;;;;;;;;7.61;100.00;102016.78;5050444;28;1125;-74
2023/10/15 09:20:39;;;;;;;;;;;;;;;7.67;100.00;102021.63;5047638;28;1503;-73
2023/10/15 09:23:05;;;;;;;;;;;;;;;7.74;100.00;102025.56;5046599;28;1255;-73
2023/10/15 09:25:30;;;;;;;;;;;;;;;7.79;100.00;102030.50;5038330;28;1213;-73
2023/10/15 09:28:16;;;;;;;;;;;;;;;7.77;100.00;102045.25;5051840;28;1890;-73
2023/10/15 09:30:43;;;;;;;;;;;;;;;7.84;100.00;102052.63;5043741;28;1046;-73
2023/10/15 09:33:12;;;;;;;;;;;;;;;7.84;100.00;102056.94;5045962;28;1223;-74
2023/10/15 09:35:37;;;;;;;;;;;;;;;7.86;100.00;102066.31;5045367;28;1017;-74
2023/10/15 09:38:04;;;;;;;;;;;;;;;7.87;100.00;102075.72;5047083;28;1163;-75
2023/10/15 09:40:32;;;;;;;;;;;;;;;7.90;100.00;102082.47;5048286;28;1266;-74
2023/10/15 09:42:57;;;;;;;;;;;;;;;7.95;100.00;102091.66;5043305;28;1240;-73
2023/10/15 09:45:25;;;;;;;;;;;;;;;8.03;100.00;102086.13;5059594;28;1356;-74
2023/10/15 09:48:00;;;;;;;;;;;;;;;8.08;100.00;102089.28;5047037;28;1902;-74
2023/10/15 09:50:27;;;;;;;;;;;;;;;8.14;100.00;102094.16;5049938;28;1034;-75
2023/10/15 09:53:01;;;;;;;;;;;;;;;8.15;100.00;102102.75;5044026;28;1186;-74
2023/10/15 09:55:27;;;;;;;;;;;;;;;8.24;99.80;102110.00;5049930;28;1151;-74
2023/10/15 09:57:53;;;;;;;;;;;;;;;8.13;100.00;102101.97;5044421;28;1081;-74
2023/10/15 10:00:32;;;;;;;;;;;;;;;8.05;98.99;102114.47;5047473;28;1052;-75
2023/10/15 10:03:09;;;;;;;;;;;;;;;7.98;99.41;102109.59;5044968;28;982;-74
2023/10/15 10:05:49;;;;;;;;;;;;;;;7.95;99.86;102109.75;5052008;28;1063;-74
2023/10/15 10:08:32;;;;;;;;;;;;;;;7.95;99.26;102108.91;5048335;28;1967;-73
2023/10/15 10:11:22;;;;;;;;;;;;;;;7.91;98.55;102103.06;5048616;28;1017;-74
2023/10/15 10:13:49;;;;;;;;;;;;;;;7.95;98.96;102104.56;5043921;28;1390;-75
2023/10/15 10:16:25;;;;;;;;;;;;;;;8.01;99.16;102098.25;5048063;28;1074;-73
2023/10/15 10:18:50;;;;;;;;;;;;;;;8.14;100.00;102098.47;5049223;28;1255;-74
2023/10/15 10:21:16;;;;;;;;;;;;;;;8.23;99.15;102100.59;5048257;28;1139;-75
2023/10/15 10:23:41;;;;;;;;;;;;;;;8.25;98.82;102106.50;5041387;28;1059;-75
2023/10/15 10:26:17;;;;;;;;;;;;;;;8.25;98.79;102106.50;5051372;28;1081;-74
2023/10/15 10:28:44;;;;;;;;;;;;;;;8.33;99.33;102114.72;5044393;28;1087;-74
2023/10/15 10:31:11;;;;;;;;;;;;;;;8.38;98.55;102117.94;5046790;28;1064;-74
2023/10/15 10:33:40;;;;;;;;;;;;;;;8.40;94.87;102110.09;5041762;28;1106;-74
2023/10/15 10:36:15;;;;;;;;;;;;;;;8.48;97.55;102134.63;5043674;28;1086;-74
2023/10/15 10:38:41;;;;;;;;;;;;;;;8.59;93.76;102135.81;5052144;28;1357;-73
2023/10/15 10:41:12;;;;;;;;;;;;;;;8.65;96.71;102127.75;5041987;28;1128;-74
2023/10/15 10:43:40;;;;;;;;;;;;;;;8.68;95.68;102119.84;5053392;28;1258;-74
2023/10/15 10:46:06;;;;;;;;;;;;;;;8.70;95.64;102123.16;5049232;28;1122;-75
2023/10/15 10:48:39;;;;;;;;;;;;;;;8.80;95.98;102119.19;5045868;28;1942;-74
2023/10/15 10:51:13;;;;;;;;;;;;;;;8.90;96.88;102120.38;5052838;28;1218;-76
2023/10/15 10:53:58;;;;;;;;;;;;;;;8.99;96.14;102124.19;5049398;28;1338;-73
2023/10/15 10:56:37;;;;;;;;;;;;;;;9.26;95.08;102121.84;5043054;28;1251;-74
2023/10/15 10:59:02;;;;;;;;;;;;;;;9.20;93.49;102127.38;5051990;28;1237;-74
2023/10/15 11:01:33;;;;;;;;;;;;;;;9.20;95.22;102120.44;5049101;28;1262;-74
2023/10/15 11:03:59;;;;;;;;;;;;;;;9.25;95.05;102113.25;5069101;28;1178;-76
2023/10/15 11:06:24;;;;;;;;;;;;;;;9.30;94.89;102108.66;5056724;28;1977;-74
2023/10/15 11:08:50;;;;;;;;;;;;;;;9.34;95.15;102119.66;5052376;28;1184;-74
2023/10/15 11:11:15;;;;;;;;;;;;;;;9.40;94.65;102129.69;5071448;28;1188;-73
2023/10/15 11:13:42;;;;;;;;;;;;;;;9.43;93.31;102128.69;5050739;28;1297;-75
2023/10/15 11:16:10;;;;;;;;;;;;;;;9.45;93.87;102125.09;5048954;28;1175;-74
2023/10/15 11:18:36;;;;;;;;;;;;;;;9.53;93.44;102120.31;5049800;28;1167;-73
2023/10/15 11:21:02;;;;;;;;;;;;;;;9.64;93.72;102116.31;5054051;28;1285;-74
2023/10/15 11:23:27;;;;;;;;;;;;;;;9.73;92.41;102118.34;5050278;28;1191;-74
2023/10/15 11:25:56;;;;;;;;;;;;;;;9.76;92.59;102119.03;5056827;28;1312;-75
2023/10/15 11:28:21;;;;;;;;;;;;;;;9.81;90.94;102123.94;5063233;28;1910;-74
2023/10/15 11:30:46;;;;;;;;;;;;;;;9.82;90.39;102128.19;5055813;28;1346;-74
2023/10/15 11:33:32;;;;;;;;;;;;;;;9.81;88.47;102124.78;5049343;28;1161;-74
2023/10/15 11:35:57;;;;;;;;;;;;;;;9.79;89.17;102130.94;5048164;28;1317;-74
2023/10/15 11:38:31;;;;;;;;;;;;;;;9.85;88.50;102131.44;5048727;28;1175;-75
2023/10/15 11:40:56;;;;;;;;;;;;;;;10.13;87.05;102144.56;5048037;28;1207;-74
2023/10/15 11:43:22;;;;;;;;;;;;;;;10.05;87.33;102143.25;5052288;28;1157;-74
2023/10/15 11:45:47;;;;;;;;;;;;;;;10.04;87.74;102136.41;5049650;28;1339;-75
2023/10/15 11:48:12;;;;;;;;;;;;;;;10.01;87.53;102152.13;5049566;28;1993;-74
2023/10/15 11:50:40;;;;;;;;;;;;;;;9.84;85.19;102180.75;5050113;28;1291;-75
2023/10/15 11:53:06;;;;;;;;;;;;;;;9.69;84.31;102181.59;5047499;28;1406;-75
2023/10/15 11:55:33;;;;;;;;;;;;;;;9.00;86.53;102198.31;5054354;28;1336;-74
2023/10/15 11:58:10;;;;;;;;;;;;;;;8.45;85.78;102181.34;5050554;28;1039;-75
2023/10/15 12:00:39;;;;;;;;;;;;;;;8.07;86.92;102182.38;5051751;28;987;-73
2023/10/15 12:03:05;;;;;;;;;;;;;;;7.87;88.51;102183.38;5051027;28;1148;-74
2023/10/15 12:05:31;;;;;;;;;;;;;;;7.85;89.08;102175.69;5052467;28;1040;-74
2023/10/15 12:07:58;;;;;;;;;;;;;;;7.89;89.40;102182.38;5054618;28;1969;-74
2023/10/15 12:10:24;;;;;;;;;;;;;;;7.96;89.81;102165.66;5050151;28;1297;-74
2023/10/15 12:12:49;;;;;;;;;;;;;;;8.13;89.50;102169.16;5053870;28;1160;-74
2023/10/15 12:15:14;;;;;;;;;;;;;;;8.27;89.56;102156.41;5047877;28;1178;-75
2023/10/15 12:17:40;;;;;;;;;;;;;;;8.39;89.98;102155.81;5050521;28;1199;-75
2023/10/15 12:20:06;;;;;;;;;;;;;;;8.60;90.47;102159.03;5050686;28;1187;-76
2023/10/15 12:22:32;;;;;;;;;;;;;;;8.80;91.64;102160.56;5047953;28;1313;-75
2023/10/15 12:24:57;;;;;;;;;;;;;;;8.94;91.18;102155.50;5052081;28;1238;-73
2023/10/15 12:27:22;;;;;;;;;;;;;;;9.08;90.56;102162.53;5056299;28;2013;-74
2023/10/15 12:29:47;;;;;;;;;;;;;;;9.18;88.74;102165.47;5047984;28;1152;-74
2023/10/15 12:32:13;;;;;;;;;;;;;;;9.17;89.33;102163.78;5048081;28;1298;-73
2023/10/15 12:34:39;;;;;;;;;;;;;;;9.22;89.46;102166.94;5044455;28;1309;-74
2023/10/15 12:37:07;;;;;;;;;;;;;;;9.27;88.24;102164.94;5040679;28;1455;-74
2023/10/15 12:39:33;;;;;;;;;;;;;;;9.26;89.66;102153.75;5044161;28;1040;-74
2023/10/15 12:41:58;;;;;;;;;;;;;;;9.39;89.00;102158.25;5048096;28;1152;-75
2023/10/15 12:44:26;;;;;;;;;;;;;;;9.50;87.11;102161.91;5045761;28;1191;-76
2023/10/15 12:46:51;;;;;;;;;;;;;;;9.43;88.24;102155.41;5044512;28;1988;-76
2023/10/15 12:49:16;;;;;;;;;;;;;;;9.50;88.20;102156.75;5046173;28;1391;-75
2023/10/15 12:51:43;;;;;;;;;;;;;;;9.58;88.66;102153.75;5041333;28;1097;-74
2023/10/15 12:54:08;;;;;;;;;;;;;;;9.68;88.52;102154.03;5051508;28;1335;-74
2023/10/15 12:56:33;;;;;;;;;;;;;;;9.79;88.27;102141.31;5043805;28;1079;-74
2023/10/15 12:58:59;;;;;;;;;;;;;;;9.95;86.81;102157.66;5054595;28;1009;-75
2023/10/15 13:01:24;;;;;;;;;;;;;;;9.89;86.35;102163.19;5044949;28;1163;-74
2023/10/15 13:03:49;;;;;;;;;;;;;;;9.92;87.10;102159.56;5051653;28;1007;-74
2023/10/15 13:06:17;;;;;;;;;;;;;;;10.01;87.50;102165.06;5042426;28;1886;-74
2023/10/15 13:08:43;;;;;;;;;;;;;;;10.10;86.96;102167.16;5053030;28;1085;-74
2023/10/15 13:11:11;;;;;;;;;;;;;;;10.11;87.01;102168.81;5060958;28;1270;-77